Van Nuys, CA (91411)

10:47 AM PDT on July 05, 2015 (GMT -0700)
Valley College Weather Station | | Change Station
CLOSE
Current Station
Personal Weather Station
Location: Valley Glen, CA
Elevation: 699 ft
Nearby Weather Stations

Elev 699 ft 34.18 °N, 118.42 °W | Updated 2 seconds ago

Overcast
Overcast
71.6 °F
Feels Like 75 °F
N
0.0
Wind Variable Wind from NNE
Gusts 2.0 mph

Today
High -- | Low -- °F
--% Chance of Precip.
Yesterday
High -- | Low -- °F
Precip. -- in
5:47 AM 8:09 PM
Waning Gibbous, 83% visible
Pressure 29.97 in
Visibility 4.0 miles
Clouds Overcast 1400 ft
Heat Index 75 °F
Dew Point 60 °F
Humidity 68%
Rainfall 0.00 in
Snow Depth Not available.
UV 2 out of 12
Pollen 3.50 out of 12
Air Quality Not available.
Flu Activity Not available.
METAR KVNY 051651Z 17003KT 4SM HZ OVC014 19/14 A2999 RMK AO2 SLP147 T01890144

More Conditions Fewer Conditions

Pressure 29.97 in
Visibility 4.0 miles
Clouds Overcast 1400 ft
Heat Index 75 °F
Dew Point 60 °F
Humidity 68%
Rainfall 0.00 in
Snow Depth Not available.
UV 2 out of 12
Pollen 3.50 out of 12
Air Quality Not available.
Flu Activity Not available.
METAR KVNY 051651Z 17003KT 4SM HZ OVC014 19/14 A2999 RMK AO2 SLP147 T01890144

More Conditions Fewer Conditions

10-Day Weather Forecast

×

Almanac

Astronomy

Jul. 05, 2015 Rise Set
Actual Time
Civil Twilight
Nautical Twilight
Astronomical Twilight
Moon
Length of Visible Light
Length of Day
Tomorrow will be .
, % of the Moon is Illuminated

Today's Extremes

State Highs State Lows

Community

WunderPhotos

Upload Photos

1,835,327 photos uploaded!

WunderBlogs® & News

Nearby

Air Quality

  Air Quality AQ Index Pollutant
Not available.

Snow Depth

Station Depth Elevation

Earthquake Activity

City Distance Mag. Time & Date
Minimum magnitude displayed is 2.5.

Coastal Water Temperatures

Place Temperature

Stations

Nearby Weather Stations

Station Location Temp. Windchill Dew Point Humidity Wind Precip. Elev Updated Type